createdAt,value
2023-04-26T00:00:24.517Z,98250
2023-04-26T00:12:24.529Z,98250
2023-04-26T00:24:24.529Z,98260
2023-04-26T00:36:24.425Z,98250
2023-04-26T00:48:24.424Z,98250
2023-04-26T01:00:24.537Z,98240
2023-04-26T01:12:24.547Z,98240
2023-04-26T01:24:24.489Z,98240
2023-04-26T01:36:24.530Z,98240
2023-04-26T01:48:24.437Z,98230
2023-04-26T02:00:24.521Z,98230
2023-04-26T02:12:24.527Z,98220
2023-04-26T02:24:24.554Z,98210
2023-04-26T02:36:24.422Z,98200
2023-04-26T02:48:24.425Z,98210
2023-04-26T03:00:24.489Z,98220
2023-04-26T03:12:24.425Z,98210
2023-04-26T03:24:24.476Z,98210
2023-04-26T03:36:24.542Z,98210
2023-04-26T03:48:24.523Z,98200
2023-04-26T04:00:24.522Z,98180
2023-04-26T04:12:24.417Z,98190
2023-04-26T04:24:24.441Z,98200
2023-04-26T04:36:24.516Z,98200
2023-04-26T04:48:24.436Z,98230
2023-04-26T05:00:24.547Z,98230
2023-04-26T05:12:24.525Z,98240
2023-04-26T05:24:24.424Z,98240
2023-04-26T05:36:24.504Z,98260
2023-04-26T05:48:24.426Z,98270
2023-04-26T06:00:24.429Z,98300
2023-04-26T06:12:24.415Z,98300
2023-04-26T06:24:24.418Z,98300
2023-04-26T06:36:24.416Z,98310
2023-04-26T06:48:24.460Z,98330
2023-04-26T07:00:24.436Z,98350
2023-04-26T07:12:24.435Z,98340
2023-04-26T07:24:24.752Z,98350
2023-04-26T07:36:25.276Z,98350
2023-04-26T07:48:24.461Z,98360
2023-04-26T08:00:24.590Z,98350
2023-04-26T08:12:24.433Z,98370
2023-04-26T08:24:24.423Z,98370
2023-04-26T08:36:24.557Z,98390
2023-04-26T08:48:24.569Z,98370
2023-04-26T09:00:24.550Z,98370
2023-04-26T09:12:24.513Z,98370
2023-04-26T09:24:24.432Z,98370
2023-04-26T09:36:24.440Z,98380
2023-04-26T09:48:24.479Z,98370
2023-04-26T10:00:24.417Z,98350
2023-04-26T10:12:24.488Z,98360
2023-04-26T10:24:24.496Z,98350
2023-04-26T10:36:24.529Z,98350
2023-04-26T10:48:24.465Z,98330
2023-04-26T11:00:24.550Z,98330
2023-04-26T11:12:24.441Z,98320
2023-04-26T11:24:24.501Z,98330
2023-04-26T11:36:24.545Z,98310
2023-04-26T11:48:24.465Z,98320
2023-04-26T12:00:24.537Z,98300
2023-04-26T12:12:24.446Z,98300
2023-04-26T12:24:24.474Z,98300
2023-04-26T12:36:24.551Z,98300
2023-04-26T12:48:24.426Z,98290
2023-04-26T13:00:24.425Z,98290
2023-04-26T13:12:24.520Z,98300
2023-04-26T13:24:24.515Z,98300
2023-04-26T13:36:24.508Z,98290
2023-04-26T13:48:24.429Z,98280
2023-04-26T14:00:24.451Z,98270
2023-04-26T14:12:24.417Z,98270
2023-04-26T14:24:24.538Z,98270
2023-04-26T14:36:24.532Z,98270
2023-04-26T14:48:24.423Z,98250
2023-04-26T15:00:24.425Z,98250
2023-04-26T15:12:24.516Z,98260
2023-04-26T15:24:24.534Z,98250
2023-04-26T15:36:24.530Z,98240
2023-04-26T15:48:24.448Z,98240
2023-04-26T16:00:24.427Z,98250
2023-04-26T16:12:24.520Z,98250
2023-04-26T16:24:24.507Z,98230
2023-04-26T16:36:24.479Z,98220
2023-04-26T16:48:24.481Z,98220
2023-04-26T17:00:24.527Z,98220
2023-04-26T17:12:24.734Z,98230
2023-04-26T17:24:24.530Z,98230
2023-04-26T17:36:24.444Z,98210
2023-04-26T17:48:24.449Z,98220
2023-04-26T18:00:24.418Z,98230
2023-04-26T18:12:24.535Z,98220
2023-04-26T18:24:24.419Z,98240
2023-04-26T18:36:24.541Z,98240
2023-04-26T18:48:24.454Z,98250
2023-04-26T19:00:24.494Z,98250
2023-04-26T19:12:24.510Z,98270
2023-04-26T19:24:24.551Z,98270
2023-04-26T19:36:24.450Z,98280
2023-04-26T19:48:24.427Z,98280
2023-04-26T20:00:24.535Z,98280
2023-04-26T20:12:24.522Z,98290
2023-04-26T20:24:24.538Z,98300
2023-04-26T20:36:24.420Z,98300
2023-04-26T20:48:24.506Z,98290
2023-04-26T21:00:24.545Z,98290
2023-04-26T21:12:24.530Z,98270
2023-04-26T21:24:24.624Z,98280
2023-04-26T21:36:24.549Z,98290
2023-04-26T21:48:24.419Z,98300
2023-04-26T22:00:24.528Z,98300
2023-04-26T22:12:24.428Z,98300
2023-04-26T22:24:24.540Z,98310
2023-04-26T22:36:24.441Z,98310
2023-04-26T22:48:24.513Z,98320
2023-04-26T23:00:25.885Z,98320
2023-04-26T23:12:24.542Z,98310
2023-04-26T23:24:24.512Z,98310
2023-04-26T23:36:24.428Z,98310
2023-04-26T23:48:24.497Z,98310
